createdAt,value
2023-04-13T00:03:27.177Z,9.36
2023-04-13T00:08:58.435Z,9.23
2023-04-13T00:14:30.118Z,9.35
2023-04-13T00:20:01.894Z,9.07
2023-04-13T00:25:33.842Z,8.81
2023-04-13T00:31:05.340Z,8.76
2023-04-13T00:36:37.988Z,8.82
2023-04-13T00:42:08.783Z,8.78
2023-04-13T00:47:40.474Z,8.73
2023-04-13T00:53:12.366Z,8.89
2023-04-13T00:58:44.758Z,8.78
2023-04-13T01:04:21.222Z,8.96
2023-04-13T01:09:55.293Z,8.72
2023-04-13T01:15:23.783Z,8.56
2023-04-13T01:20:55.776Z,8.77
2023-04-13T01:26:27.009Z,8.53
2023-04-13T01:31:58.682Z,8.46
2023-04-13T01:37:30.554Z,8.76
2023-04-13T01:43:02.178Z,8.96
2023-04-13T01:48:34.034Z,8.67
2023-04-13T01:54:05.683Z,8.86
2023-04-13T01:59:37.560Z,8.8
2023-04-13T02:05:13.590Z,8.77
2023-04-13T02:10:45.332Z,8.42
2023-04-13T02:16:17.072Z,8.31
2023-04-13T02:21:48.592Z,7.97
2023-04-13T02:27:20.301Z,8.03
2023-04-13T02:32:52.252Z,8.14
2023-04-13T02:38:23.891Z,8.17
2023-04-13T02:43:56.093Z,8.37
2023-04-13T02:49:27.365Z,8.12
2023-04-13T02:54:58.905Z,8.06
2023-04-13T03:00:30.804Z,8.03
2023-04-13T03:06:06.929Z,8.07
2023-04-13T03:11:39.223Z,7.88
2023-04-13T03:17:10.278Z,7.56
2023-04-13T03:22:42.090Z,7.31
2023-04-13T03:28:13.796Z,7.4
2023-04-13T03:33:45.343Z,7.39
2023-04-13T03:39:17.079Z,7.11
2023-04-13T03:44:48.793Z,7.21
2023-04-13T03:50:20.689Z,7.32
2023-04-13T03:55:52.431Z,7.31
2023-04-13T04:01:24.255Z,7.48
2023-04-13T04:07:00.219Z,7.35
2023-04-13T04:12:31.919Z,7.38
2023-04-13T04:18:03.540Z,7.38
2023-04-13T04:23:35.297Z,7.47
2023-04-13T04:29:07.001Z,7.35
2023-04-13T04:34:38.736Z,7.56
2023-04-13T04:40:10.641Z,7.48
2023-04-13T04:45:42.227Z,7.68
2023-04-13T04:51:13.933Z,7.54
2023-04-13T04:56:45.692Z,7.48
2023-04-13T05:02:17.417Z,7.45
2023-04-13T05:07:53.530Z,7.46
2023-04-13T05:13:25.202Z,7.62
2023-04-13T05:18:57.033Z,7.47
2023-04-13T05:24:28.646Z,7.44
2023-04-13T05:30:00.419Z,7.58
2023-04-13T05:35:32.517Z,7.55
2023-04-13T05:41:03.850Z,7.53
2023-04-13T05:46:35.586Z,7.76
2023-04-13T05:52:07.285Z,7.61
2023-04-13T05:57:39.009Z,7.72
2023-04-13T06:03:11.059Z,7.77
2023-04-13T06:08:46.873Z,7.84
2023-04-13T06:14:18.586Z,7.84
2023-04-13T06:19:50.289Z,7.81
2023-04-13T06:25:22.235Z,8.04
2023-04-13T06:30:53.798Z,8.09
2023-04-13T06:36:25.736Z,8.26
2023-04-13T06:41:57.417Z,8.27
2023-04-13T06:47:28.962Z,8.22
2023-04-13T06:53:00.984Z,8.21
2023-04-13T06:58:32.654Z,8.14
2023-04-13T07:04:04.344Z,8.24
2023-04-13T07:09:40.218Z,8.31
2023-04-13T07:15:12.319Z,8.39
2023-04-13T07:20:43.860Z,8.36
2023-04-13T07:26:15.617Z,8.49
2023-04-13T07:31:47.162Z,8.7
2023-04-13T07:37:19.237Z,8.62
2023-04-13T07:42:50.580Z,8.63
2023-04-13T07:48:22.604Z,8.71
2023-04-13T07:53:54.536Z,9.24
2023-04-13T07:59:26.238Z,9.54
2023-04-13T08:04:57.759Z,9.51
2023-04-13T08:10:33.593Z,9.18
2023-04-13T08:16:05.515Z,9.08
2023-04-13T08:21:37.233Z,8.99
2023-04-13T08:27:08.788Z,8.98
2023-04-13T08:32:40.461Z,9.11
2023-04-13T08:38:12.205Z,9.08
2023-04-13T08:43:44.224Z,8.99
2023-04-13T08:49:15.647Z,9.09
2023-04-13T08:54:47.679Z,9.39
2023-04-13T09:00:19.099Z,9.41
2023-04-13T09:05:51.034Z,9.72
2023-04-13T09:11:26.938Z,9.76
2023-04-13T09:16:58.771Z,9.88
2023-04-13T09:22:30.400Z,9.74
2023-04-13T09:28:02.807Z,9.61
2023-04-13T09:33:33.832Z,9.6
2023-04-13T09:39:05.792Z,9.64
2023-04-13T09:44:37.513Z,9.73
2023-04-13T09:50:09.072Z,9.67
2023-04-13T09:55:40.781Z,9.78
2023-04-13T10:01:12.738Z,9.86
2023-04-13T10:06:44.183Z,9.91
2023-04-13T10:12:20.304Z,10.08
2023-04-13T10:17:52.382Z,10.15
2023-04-13T10:23:23.906Z,10.1
2023-04-13T10:28:55.681Z,10.11
2023-04-13T10:34:27.171Z,10.11
2023-04-13T10:39:59.221Z,10.25
2023-04-13T10:45:30.871Z,10.28
2023-04-13T10:51:02.378Z,10.32
2023-04-13T10:56:34.309Z,10.57
2023-04-13T11:02:06.049Z,10.5
2023-04-13T11:07:37.536Z,10.59
2023-04-13T11:13:13.651Z,10.27
2023-04-13T11:18:45.634Z,10.0
2023-04-13T11:24:17.102Z,10.22
2023-04-13T11:29:49.134Z,10.28
2023-04-13T11:35:20.964Z,10.75
2023-04-13T11:40:54.993Z,10.93
2023-04-13T11:46:24.101Z,10.91
2023-04-13T11:51:55.902Z,11.15
2023-04-13T11:57:27.900Z,11.46
2023-04-13T12:03:02.211Z,11.44
2023-04-13T12:08:30.963Z,11.76
2023-04-13T12:14:12.271Z,11.28
2023-04-13T12:19:40.596Z,11.37
2023-04-13T12:25:11.805Z,11.51
2023-04-13T12:30:42.291Z,11.73
2023-04-13T12:36:14.196Z,11.69
2023-04-13T12:41:45.652Z,11.74
2023-04-13T12:47:17.417Z,11.62
2023-04-13T12:52:49.124Z,11.81
2023-04-13T12:58:21.048Z,12.2
2023-04-13T13:03:52.605Z,12.03
2023-04-13T13:09:24.580Z,12.74
2023-04-13T13:15:00.605Z,12.62
2023-04-13T13:20:32.138Z,12.93
2023-04-13T13:26:22.866Z,12.99
2023-04-13T13:31:35.855Z,13.14
2023-04-13T13:37:07.300Z,12.92
2023-04-13T13:42:50.464Z,12.63
2023-04-13T13:48:10.695Z,12.45
2023-04-13T13:53:42.406Z,12.18
2023-04-13T13:59:14.175Z,12.22
2023-04-13T14:04:46.066Z,12.49
2023-04-13T14:10:17.619Z,13.0
2023-04-13T14:15:53.961Z,12.79
2023-04-13T14:21:25.873Z,12.77
2023-04-13T14:26:57.189Z,12.69
2023-04-13T14:32:28.923Z,12.67
2023-04-13T14:38:00.632Z,12.76
2023-04-13T14:43:32.538Z,13.18
2023-04-13T14:49:04.292Z,12.82
2023-04-13T14:54:35.851Z,12.31
2023-04-13T15:00:07.541Z,12.42
2023-04-13T15:05:39.846Z,12.2
2023-04-13T15:11:10.996Z,11.77
2023-04-13T15:16:47.167Z,10.77
2023-04-13T15:22:18.891Z,11.02
2023-04-13T15:27:50.765Z,11.15
2023-04-13T15:33:22.502Z,10.68
2023-04-13T15:38:54.309Z,10.26
2023-04-13T15:44:25.745Z,10.78
2023-04-13T15:49:57.653Z,10.71
2023-04-13T15:55:29.207Z,10.94
2023-04-13T16:01:00.939Z,10.78
2023-04-13T16:06:32.588Z,10.84
2023-04-13T16:12:04.576Z,10.04
2023-04-13T16:17:40.726Z,10.07
2023-04-13T16:23:12.143Z,9.92
2023-04-13T16:28:44.228Z,9.96
2023-04-13T16:34:25.362Z,10.03
2023-04-13T16:39:47.560Z,10.25
2023-04-13T16:45:19.126Z,10.16
2023-04-13T16:50:50.809Z,10.62
2023-04-13T16:56:29.391Z,10.48
2023-04-13T17:02:01.257Z,10.38
2023-04-13T17:07:32.859Z,10.45
2023-04-13T17:13:04.583Z,9.88
2023-04-13T17:18:42.681Z,10.0
2023-04-13T17:24:14.470Z,10.05
2023-04-13T17:29:46.309Z,10.19
2023-04-13T17:35:17.852Z,10.12
2023-04-13T17:40:49.755Z,9.97
2023-04-13T17:46:21.589Z,10.05
2023-04-13T17:51:53.255Z,9.97
2023-04-13T17:57:24.761Z,9.89
2023-04-13T18:02:56.903Z,10.07
2023-04-13T18:08:28.392Z,10.12
2023-04-13T18:14:00.336Z,9.89
2023-04-13T18:19:38.418Z,9.52
2023-04-13T18:25:09.881Z,9.66
2023-04-13T18:30:42.177Z,9.74
2023-04-13T18:36:13.195Z,9.61
2023-04-13T18:41:44.934Z,9.53
2023-04-13T18:47:18.735Z,9.65
2023-04-13T18:52:48.680Z,9.14
2023-04-13T18:58:20.231Z,9.36
2023-04-13T19:03:52.014Z,9.45
2023-04-13T19:09:23.525Z,9.54
2023-04-13T19:14:55.453Z,9.52
2023-04-13T19:20:33.597Z,9.59
2023-04-13T19:26:05.100Z,9.46
2023-04-13T19:31:37.015Z,9.42
2023-04-13T19:37:08.763Z,9.34
2023-04-13T19:42:40.261Z,9.23
2023-04-13T19:48:12.353Z,9.09
2023-04-13T19:53:43.966Z,9.13
2023-04-13T19:59:15.446Z,9.16
2023-04-13T20:04:47.142Z,9.13
2023-04-13T20:10:19.127Z,8.92
2023-04-13T20:15:50.871Z,8.82
2023-04-13T20:21:28.702Z,8.8
2023-04-13T20:27:00.429Z,8.75
2023-04-13T20:32:32.316Z,8.7
2023-04-13T20:38:03.978Z,8.77
2023-04-13T20:43:35.732Z,8.81
2023-04-13T20:49:07.470Z,8.78
2023-04-13T20:54:39.183Z,8.88
2023-04-13T21:00:11.504Z,8.96
2023-04-13T21:05:42.413Z,8.68
2023-04-13T21:11:14.166Z,8.87
2023-04-13T21:16:46.054Z,8.93
2023-04-13T21:22:24.284Z,8.92
2023-04-13T21:27:55.725Z,8.89
2023-04-13T21:33:27.641Z,8.87
2023-04-13T21:38:59.261Z,8.83
2023-04-13T21:44:31.070Z,8.76
2023-04-13T21:50:02.606Z,8.75
2023-04-13T21:55:34.898Z,8.75
2023-04-13T22:01:06.066Z,8.72
2023-04-13T22:06:37.781Z,8.61
2023-04-13T22:12:09.535Z,8.69
2023-04-13T22:17:41.570Z,8.7
2023-04-13T22:23:17.577Z,8.81
2023-04-13T22:28:49.111Z,8.62
2023-04-13T22:34:20.804Z,8.54
2023-04-13T22:39:52.645Z,8.22
2023-04-13T22:45:24.266Z,8.24
2023-04-13T22:50:56.173Z,8.36
2023-04-13T22:56:27.708Z,8.31
2023-04-13T23:01:59.778Z,8.45
2023-04-13T23:07:31.145Z,8.31
2023-04-13T23:13:02.879Z,8.15
2023-04-13T23:18:34.851Z,8.08
2023-04-13T23:24:12.921Z,8.15
2023-04-13T23:29:44.437Z,8.0
2023-04-13T23:35:16.584Z,7.92
2023-04-13T23:40:47.975Z,8.18
2023-04-13T23:46:19.840Z,8.15
2023-04-13T23:51:51.308Z,8.13
2023-04-13T23:57:23.310Z,8.03
